Time;durP1;ratioP1;P1;durP2;ratioP2;P2;SDS_P1;SDS_P2;PMS_P1;PMS_P2;Temp;Humidity;BMP_temperature;BMP_pressure;BME280_temperature;BME280_humidity;BME280_pressure;Samples;Min_cycle;Max_cycle;Signal;HPM_P1;HPM_P2
2021/04/11 00:00:46;;;;;;;10.13;5.10;;;;;;;0.70;71.64;96337.42;1743221;81;21769;-70
2021/04/11 00:03:23;;;;;;;10.03;4.63;;;;;;;0.74;71.47;96335.39;1739971;82;21588;-70
2021/04/11 00:05:50;;;;;;;9.80;4.83;;;;;;;0.79;71.22;96334.24;1740188;82;21130;-70
2021/04/11 00:08:19;;;;;;;5.53;3.30;;;;;;;0.76;71.00;96338.05;1740050;82;21145;-70
2021/04/11 00:10:53;;;;;;;6.50;4.13;;;;;;;0.71;71.49;96335.73;1740041;82;21150;-70
2021/04/11 00:13:28;;;;;;;9.00;5.00;;;;;;;0.70;71.82;96337.84;1739991;82;21236;-70
2021/04/11 00:15:56;;;;;;;4.87;3.80;;;;;;;0.59;71.65;96340.11;1740165;82;21323;-70
2021/04/11 00:18:24;;;;;;;6.83;3.80;;;;;;;0.54;72.17;96342.98;1739884;82;21735;-70
2021/04/11 00:20:52;;;;;;;6.27;3.37;;;;;;;0.61;71.97;96343.64;1740205;82;21292;-70
2021/04/11 00:23:21;;;;;;;7.57;4.13;;;;;;;0.49;72.03;96345.42;1740224;82;21146;-70
2021/04/11 00:25:49;;;;;;;9.23;3.73;;;;;;;0.39;72.19;96348.13;1739975;82;21173;-70
2021/04/11 00:28:18;;;;;;;4.10;3.23;;;;;;;0.34;73.06;96348.40;1740222;82;21271;-70
2021/04/11 00:30:47;;;;;;;7.27;3.50;;;;;;;0.34;72.55;96344.50;1740146;82;21272;-70
2021/04/11 00:33:40;;;;;;;7.47;3.43;;;;;;;0.27;72.39;96340.36;1740548;81;21158;-70
2021/04/11 00:36:12;;;;;;;8.60;3.95;;;;;;;0.31;72.34;96334.45;1740250;82;21569;-70
2021/04/11 00:38:41;;;;;;;5.90;3.23;;;;;;;0.33;72.50;96325.00;1740279;82;21272;-70
2021/04/11 00:41:23;;;;;;;9.93;3.40;;;;;;;0.31;72.50;96324.94;1740202;82;21576;-70
2021/04/11 00:43:52;;;;;;;6.13;3.27;;;;;;;0.31;72.34;96322.34;1740379;82;21533;-70
2021/04/11 00:46:31;;;;;;;5.70;3.00;;;;;;;0.34;72.34;96318.55;1740281;82;21145;-70
2021/04/11 00:49:01;;;;;;;8.80;3.40;;;;;;;0.29;72.58;96324.00;1740509;82;21123;-70
2021/04/11 00:51:32;;;;;;;3.70;2.13;;;;;;;0.31;72.30;96331.85;1740582;82;21130;-70
2021/04/11 00:54:06;;;;;;;6.47;3.50;;;;;;;0.31;72.93;96321.47;1740771;82;21134;-70
2021/04/11 00:56:38;;;;;;;6.53;3.20;;;;;;;0.32;72.44;96329.71;1719714;82;21134;-70
2021/04/11 00:59:10;;;;;;;5.93;3.07;;;;;;;0.33;72.19;96318.09;1740312;82;21276;-70
2021/04/11 01:01:40;;;;;;;6.17;2.85;;;;;;;0.36;72.17;96307.80;1719598;82;21138;-70
2021/04/11 01:04:13;;;;;;;2.83;1.80;;;;;;;0.47;71.93;96309.86;1740062;82;21288;-70
2021/04/11 01:06:46;;;;;;;5.75;3.37;;;;;;;0.47;71.93;96313.75;1740621;82;21125;-70
2021/04/11 01:09:32;;;;;;;4.37;2.20;;;;;;;0.22;72.07;96320.73;1740376;82;21125;-70
2021/04/11 01:12:05;;;;;;;4.07;2.37;;;;;;;0.14;72.46;96323.08;1740145;82;21102;-70
2021/04/11 01:14:35;;;;;;;6.05;2.58;;;;;;;-0.02;73.53;96317.81;1740482;82;21119;-70
2021/04/11 01:17:11;;;;;;;6.33;2.90;;;;;;;-0.06;73.38;96324.12;1718486;82;21095;-70
2021/04/11 01:19:42;;;;;;;5.60;2.90;;;;;;;0.02;73.08;96325.27;1740175;82;21698;-70
2021/04/11 01:22:29;;;;;;;5.80;2.83;;;;;;;0.02;73.12;96317.91;1740133;82;21146;-70
2021/04/11 01:25:02;;;;;;;7.00;2.80;;;;;;;0.09;72.82;96319.45;1740167;82;21280;-70
2021/04/11 01:27:34;;;;;;;7.10;3.22;;;;;;;0.12;73.12;96310.89;1740476;82;21276;-70
2021/04/11 01:30:11;;;;;;;4.17;2.50;;;;;;;0.15;72.70;96309.69;1718339;82;21153;-70
2021/04/11 01:32:42;;;;;;;5.77;3.20;;;;;;;0.15;72.58;96308.00;1740258;82;21288;-70
2021/04/11 01:35:12;;;;;;;5.17;3.00;;;;;;;0.18;72.23;96309.39;1718366;82;21134;-70
2021/04/11 01:37:40;;;;;;;4.10;2.70;;;;;;;0.23;72.23;96306.05;1740580;82;21154;-70
2021/04/11 01:40:16;;;;;;;4.27;2.93;;;;;;;0.19;72.00;96308.97;1719557;82;21169;-70
2021/04/11 01:42:44;;;;;;;4.93;2.90;;;;;;;0.21;72.33;96303.42;1740199;82;21125;-70
2021/04/11 01:45:14;;;;;;;5.93;2.73;;;;;;;0.16;73.02;96301.09;1740336;82;21285;-70
2021/04/11 01:47:42;;;;;;;5.33;2.47;;;;;;;0.16;72.37;96297.20;1740414;82;21158;-70
2021/04/11 01:50:13;;;;;;;4.87;2.80;;;;;;;0.10;72.43;96296.59;1739962;82;21137;-70
2021/04/11 01:52:41;;;;;;;5.73;2.83;;;;;;;0.09;72.38;96299.12;1740425;82;21149;-70
2021/04/11 01:55:13;;;;;;;10.50;2.80;;;;;;;0.11;72.03;96288.38;1740385;82;21157;-70
2021/04/11 01:57:42;;;;;;;3.53;2.03;;;;;;;0.15;72.14;96298.91;1740025;82;21692;-70
2021/04/11 02:00:20;;;;;;;7.30;3.27;;;;;;;0.13;72.51;96303.17;1740079;81;21134;-70
2021/04/11 02:02:57;;;;;;;5.33;2.60;;;;;;;0.10;72.35;96306.97;1740064;82;21157;-70
2021/04/11 02:05:26;;;;;;;4.23;2.50;;;;;;;0.03;72.75;96298.51;1717639;82;21592;-70
2021/04/11 02:07:56;;;;;;;4.67;2.60;;;;;;;0.02;73.22;96301.91;1740133;82;21284;-70
2021/04/11 02:10:30;;;;;;;3.90;2.27;;;;;;;-0.14;73.33;96294.47;1739635;82;21150;-70
2021/04/11 02:13:07;;;;;;;6.33;2.40;;;;;;;-0.20;73.85;96305.52;1740006;81;21181;-70
2021/04/11 02:15:43;;;;;;;2.53;1.80;;;;;;;-0.22;73.72;96301.56;1740379;82;21170;-70
2021/04/11 02:18:14;;;;;;;3.80;2.47;;;;;;;-0.16;73.45;96306.07;1719345;82;21125;-70
2021/04/11 02:20:47;;;;;;;6.33;2.80;;;;;;;-0.16;73.35;96299.59;1740151;82;21142;-70
2021/04/11 02:23:14;;;;;;;5.57;2.77;;;;;;;-0.08;73.06;96298.13;1740214;82;21704;-70
2021/04/11 02:25:47;;;;;;;4.70;2.30;;;;;;;-0.13;72.94;96298.39;1739971;82;21303;-70
2021/04/11 02:28:18;;;;;;;5.25;2.40;;;;;;;-0.20;73.25;96299.03;1719908;82;21134;-70
2021/04/11 02:30:51;;;;;;;3.17;1.83;;;;;;;-0.26;73.24;96305.30;1740211;82;21719;-70
2021/04/11 02:33:21;;;;;;;5.05;2.58;;;;;;;-0.24;73.25;96307.53;1740157;82;21114;-70
2021/04/11 02:35:52;;;;;;;6.00;2.93;;;;;;;-0.29;73.06;96296.12;1739989;82;21288;-70
2021/04/11 02:38:21;;;;;;;2.90;1.33;;;;;;;-0.27;72.96;96308.31;1740222;82;21691;-70
2021/04/11 02:40:52;;;;;;;5.27;2.93;;;;;;;-0.24;73.75;96299.75;1740295;82;21699;-70
2021/04/11 02:43:24;;;;;;;5.60;2.60;;;;;;;-0.37;73.61;96308.82;1739538;82;21272;-70
2021/04/11 02:45:52;;;;;;;4.50;2.77;;;;;;;-0.42;73.85;96310.80;1740139;82;21575;-70
2021/04/11 02:48:20;;;;;;;9.77;2.57;;;;;;;-0.39;73.83;96308.30;1719408;82;21584;-70
2021/04/11 02:50:50;;;;;;;4.60;2.23;;;;;;;-0.36;73.77;96307.10;1739068;82;21275;-70
2021/04/11 02:53:23;;;;;;;4.00;2.30;;;;;;;-0.35;73.49;96313.66;1739936;81;21134;-70
2021/04/11 02:55:54;;;;;;;5.40;3.03;;;;;;;-0.35;73.59;96312.35;1740273;82;21707;-70
2021/04/11 02:58:24;;;;;;;4.67;2.50;;;;;;;-0.28;74.01;96309.54;1740296;82;21706;-70
2021/04/11 03:01:19;;;;;;;6.13;3.50;;;;;;;-0.28;73.96;96313.04;1743760;81;21310;-70
2021/04/11 03:03:47;;;;;;;3.62;2.65;;;;;;;-0.30;73.94;96309.51;1754315;82;21611;-70
2021/04/11 03:06:20;;;;;;;5.03;2.20;;;;;;;-0.28;73.64;96314.72;1754158;81;21161;-70
2021/04/11 03:08:53;;;;;;;4.97;2.58;;;;;;;-0.24;73.46;96312.30;1754243;81;21121;-70
2021/04/11 03:11:28;;;;;;;3.73;2.23;;;;;;;-0.19;73.34;96316.77;1753831;82;21132;-70
2021/04/11 03:13:58;;;;;;;4.87;2.97;;;;;;;-0.17;73.05;96317.29;1726504;82;21150;-70
2021/04/11 03:16:28;;;;;;;4.27;2.40;;;;;;;-0.15;72.85;96317.32;1726814;82;21556;-70
2021/04/11 03:18:57;;;;;;;5.10;2.60;;;;;;;-0.21;72.68;96315.41;1754472;82;21165;-70
2021/04/11 03:21:26;;;;;;;3.87;2.17;;;;;;;-0.19;72.69;96318.06;1754180;81;21161;-70
2021/04/11 03:23:55;;;;;;;3.17;2.10;;;;;;;-0.19;72.60;96317.64;1754067;82;21140;-70
2021/04/11 03:26:41;;;;;;;46.03;15.60;;;;;;;-0.25;72.64;96321.34;1727078;82;21137;-70
2021/04/11 03:29:36;;;;;;;18.90;8.07;;;;;;;-0.37;73.27;96320.91;1754133;82;21117;-70
2021/04/11 03:32:28;;;;;;;38.98;15.18;;;;;;;-0.54;75.13;96325.48;1754432;82;21144;-70
2021/04/11 03:35:00;;;;;;;4.80;2.20;;;;;;;-0.58;74.07;96319.33;1753683;81;21133;-70
2021/04/11 03:37:30;;;;;;;4.87;2.20;;;;;;;-0.60;74.08;96321.39;1754272;82;21143;-70
2021/04/11 03:39:59;;;;;;;3.80;2.10;;;;;;;-0.56;74.08;96324.55;1726828;82;21126;-70
2021/04/11 03:42:32;;;;;;;3.60;2.13;;;;;;;-0.50;74.19;96325.66;1754361;82;21109;-70
2021/04/11 03:45:01;;;;;;;4.03;2.47;;;;;;;-0.45;73.89;96328.42;1726852;82;21543;-70
2021/04/11 03:47:47;;;;;;;5.00;2.77;;;;;;;-0.42;73.87;96331.53;1754336;82;21129;-70
2021/04/11 03:50:20;;;;;;;4.83;2.17;;;;;;;-0.41;73.72;96339.77;1754037;81;21090;-70
2021/04/11 03:53:06;;;;;;;3.53;1.80;;;;;;;-0.38;73.57;96344.63;1753326;82;21611;-70
2021/04/11 03:55:39;;;;;;;5.42;2.67;;;;;;;-0.34;73.37;96340.03;1754165;82;21153;-71
2021/04/11 03:58:13;;;;;;;3.45;1.80;;;;;;;-0.39;73.40;96334.23;1754312;81;21152;-70
2021/04/11 04:00:57;;;;;;;3.90;2.67;;;;;;;-0.48;74.32;96338.66;1754157;81;21133;-70
2021/04/11 04:03:30;;;;;;;2.67;1.70;;;;;;;-0.56;74.02;96337.08;1753965;82;21630;-70
2021/04/11 04:06:10;;;;;;;3.53;1.90;;;;;;;-0.51;73.85;96343.73;1754320;82;21289;-70
2021/04/11 04:08:37;;;;;;;5.80;2.33;;;;;;;-0.52;73.75;96341.98;1749514;82;21125;-70
2021/04/11 04:11:30;;;;;;;3.83;2.20;;;;;;;-0.47;73.78;96349.09;1754335;82;21157;-70
2021/04/11 04:14:10;;;;;;;6.35;2.40;;;;;;;-0.45;73.70;96350.45;1754696;82;21272;-70
2021/04/11 04:16:53;;;;;;;3.87;2.07;;;;;;;-0.41;73.60;96347.12;1726014;82;21536;-70
2021/04/11 04:20:00;;;;;;;4.87;1.80;;;;;;;-0.32;73.50;96345.28;1728006;82;21110;-70
2021/04/11 04:22:47;;;;;;;5.83;2.70;;;;;;;-0.23;73.70;96349.09;1754415;82;21120;-70
2021/04/11 04:25:56;;;;;;;4.87;2.27;;;;;;;-0.15;74.05;96356.23;1820111;79;22567;-70
2021/04/11 04:28:58;;;;;;;4.37;2.23;;;;;;;-0.12;73.67;96354.64;1793045;80;21133;-70
2021/04/11 04:31:48;;;;;;;4.67;2.40;;;;;;;-0.03;73.47;96355.36;1762950;80;21157;-70
2021/04/11 04:34:34;;;;;;;2.90;2.00;;;;;;;-0.13;74.28;96354.58;1793949;80;21287;-69
2021/04/11 04:37:19;;;;;;;7.40;4.00;;;;;;;-0.14;73.78;96354.12;1793532;80;21702;-70
2021/04/11 04:40:09;;;;;;;64.57;21.60;;;;;;;-0.18;74.84;96357.42;1792905;80;21259;-70
2021/04/11 04:43:01;;;;;;;48.23;16.67;;;;;;;-0.19;75.44;96358.27;1793402;80;21133;-70
2021/04/11 04:46:09;;;;;;;7.43;2.53;;;;;;;-0.21;74.94;96360.80;1792622;80;21256;-70
2021/04/11 04:48:41;;;;;;;4.47;1.90;;;;;;;-0.16;74.81;96350.59;1793620;80;21279;-69
2021/04/11 04:51:27;;;;;;;4.50;2.43;;;;;;;-0.07;74.76;96350.91;1793450;80;21555;-70
2021/04/11 04:54:25;;;;;;;2.40;1.30;;;;;;;-0.03;75.68;96349.75;1792665;80;21156;-70
2021/04/11 04:57:15;;;;;;;3.60;2.57;;;;;;;-0.01;75.09;96351.98;1793625;80;21121;-70
2021/04/11 05:00:18;;;;;;;6.60;2.40;;;;;;;-0.04;76.27;96348.00;1790495;80;21168;-69
2021/04/11 05:02:58;;;;;;;19.00;8.35;;;;;;;0.08;75.95;96355.33;1789505;80;21700;-69
2021/04/11 05:05:30;;;;;;;18.57;10.33;;;;;;;0.14;76.59;96361.13;1793411;80;21531;-69
2021/04/11 05:08:19;;;;;;;5.00;2.50;;;;;;;0.28;76.40;96362.48;1793535;80;21223;-69
2021/04/11 05:10:53;;;;;;;7.27;3.83;;;;;;;0.47;77.29;96360.48;1793835;80;21296;-69
2021/04/11 05:13:25;;;;;;;26.13;11.00;;;;;;;0.62;76.62;96361.84;1761475;80;21575;-69
2021/04/11 05:16:12;;;;;;;22.73;11.33;;;;;;;0.83;76.04;96356.86;1793565;80;21121;-69
2021/04/11 05:18:44;;;;;;;23.77;12.23;;;;;;;1.02;75.56;96353.13;1793562;80;21149;-69
2021/04/11 05:21:30;;;;;;;31.17;12.23;;;;;;;1.27;74.61;96354.74;1780251;79;23141;-68
2021/04/11 05:24:08;;;;;;;31.97;14.97;;;;;;;1.45;74.17;96354.39;1754025;81;21098;-70
2021/04/11 05:26:56;;;;;;;20.93;11.47;;;;;;;1.63;72.85;96356.20;1723329;82;21117;-70
2021/04/11 05:29:55;;;;;;;18.00;10.30;;;;;;;1.85;72.39;96352.91;1753355;82;21591;-70
2021/04/11 05:32:26;;;;;;;23.80;11.00;;;;;;;2.04;71.90;96352.57;1754764;82;21299;-70
2021/04/11 05:34:57;;;;;;;20.77;10.80;;;;;;;2.24;71.53;96354.79;1753894;81;21188;-70
2021/04/11 05:38:06;;;;;;;19.67;11.57;;;;;;;2.32;70.88;96351.55;1753934;82;21592;-70
2021/04/11 05:40:46;;;;;;;24.93;14.33;;;;;;;2.42;70.60;96357.88;1753921;82;21125;-70
2021/04/11 05:43:25;;;;;;;24.20;12.97;;;;;;;2.58;70.48;96355.23;1754086;82;21525;-70
2021/04/11 05:46:11;;;;;;;25.60;12.27;;;;;;;2.71;70.20;96353.37;1754173;82;21140;-70
2021/04/11 05:48:49;;;;;;;26.37;11.80;;;;;;;2.87;69.78;96356.33;1724872;82;21126;-70
2021/04/11 05:51:42;;;;;;;20.77;9.77;;;;;;;3.02;69.66;96348.86;1754075;81;21136;-68
2021/04/11 05:54:18;;;;;;;15.57;7.57;;;;;;;3.20;69.17;96353.60;1753989;81;21094;-70
2021/04/11 05:56:56;;;;;;;8.57;5.33;;;;;;;3.35;68.97;96351.75;1753886;82;21137;-68
2021/04/11 05:59:36;;;;;;;9.93;5.67;;;;;;;3.49;68.36;96349.45;1754218;82;21114;-68
2021/04/11 06:02:06;;;;;;;9.03;5.80;;;;;;;3.63;67.73;96347.59;1754035;82;21538;-68
2021/04/11 06:04:51;;;;;;;14.10;6.43;;;;;;;3.78;67.65;96350.93;1754111;82;21141;-68
2021/04/11 06:07:29;;;;;;;10.17;6.03;;;;;;;3.93;67.15;96345.13;1754075;82;21158;-68
2021/04/11 06:10:18;;;;;;;15.80;6.90;;;;;;;4.07;66.27;96339.72;1754002;82;21560;-68
2021/04/11 06:13:05;;;;;;;19.47;10.13;;;;;;;4.21;63.68;96341.30;1754145;82;21098;-68
2021/04/11 06:15:41;;;;;;;11.80;6.90;;;;;;;4.38;63.70;96344.19;1754046;82;21141;-68
2021/04/11 06:18:09;;;;;;;9.33;5.47;;;;;;;4.55;63.93;96336.20;1752858;82;21149;-68
2021/04/11 06:20:38;;;;;;;9.40;4.07;;;;;;;4.75;63.77;96339.58;1746668;81;21161;-68
2021/04/11 06:23:26;;;;;;;7.87;4.20;;;;;;;4.90;64.06;96333.28;1743360;82;21291;-68
2021/04/11 06:26:11;;;;;;;6.80;3.93;;;;;;;5.07;63.57;96334.84;1742272;81;21594;-68
2021/04/11 06:28:54;;;;;;;8.13;4.20;;;;;;;5.28;63.11;96333.39;1754874;82;21129;-67
2021/04/11 06:31:26;;;;;;;8.00;3.50;;;;;;;5.47;62.78;96329.27;1754662;81;21137;-68
2021/04/11 06:34:05;;;;;;;5.77;3.23;;;;;;;5.67;62.65;96333.04;1754480;82;21145;-67
2021/04/11 06:36:44;;;;;;;7.72;4.85;;;;;;;5.91;61.21;96328.94;1801906;79;27935;-68
2021/04/11 06:39:25;;;;;;;9.07;5.63;;;;;;;6.16;60.46;96334.92;1788560;80;21626;-68
2021/04/11 06:42:37;;;;;;;5.10;3.40;;;;;;;6.30;59.62;96332.45;1788717;80;21121;-68
2021/04/11 06:45:31;;;;;;;5.40;3.30;;;;;;;6.48;59.62;96332.63;1703773;83;21598;-68
2021/04/11 06:48:24;;;;;;;5.40;3.63;;;;;;;6.71;59.03;96320.14;1704084;84;21186;-68
2021/04/11 06:51:34;;;;;;;4.57;3.07;;;;;;;7.02;58.50;96319.92;1870277;76;23057;-69
2021/04/11 06:54:39;;;;;;;;;;;;;;;7.14;58.79;96323.94;1830279;78;21149;-68
2021/04/11 06:57:53;;;;;;;4.77;2.67;;;;;;;7.35;57.51;96316.62;1827618;78;20134;-68
2021/04/11 07:00:42;;;;;;;5.25;2.35;;;;;;;7.58;55.17;96314.55;1827812;78;21145;-68
2021/04/11 07:03:50;;;;;;;5.23;3.03;;;;;;;7.80;55.23;96312.90;1827657;78;21137;-68
2021/04/11 07:07:14;;;;;;;6.20;3.17;;;;;;;8.00;54.39;96312.97;1827469;78;21516;-68
2021/04/11 07:10:08;;;;;;;5.63;2.93;;;;;;;8.18;53.64;96306.43;1827537;78;21133;-68
2021/04/11 07:13:11;;;;;;;5.17;3.00;;;;;;;8.44;54.14;96308.25;1827466;78;21078;-68
2021/04/11 07:16:19;;;;;;;5.60;2.87;;;;;;;8.68;53.27;96303.46;1827703;78;21140;-68
2021/04/11 07:19:20;;;;;;;8.83;3.50;;;;;;;8.94;49.53;96294.67;1827650;78;21153;-68
2021/04/11 07:22:16;;;;;;;6.10;3.33;;;;;;;9.19;50.84;96296.83;1827636;78;21125;-69
2021/04/11 07:25:19;;;;;;;6.00;3.20;;;;;;;9.45;50.60;96299.39;1827635;78;21113;-68
2021/04/11 07:28:27;;;;;;;4.00;2.53;;;;;;;9.67;49.58;96303.71;1822956;78;21125;-68
2021/04/11 07:31:15;;;;;;;6.00;2.90;;;;;;;9.96;48.81;96298.78;1827903;78;21140;-68
2021/04/11 07:34:25;;;;;;;6.33;2.93;;;;;;;10.21;49.22;96297.34;1827497;78;21097;-69
2021/04/11 07:37:20;;;;;;;5.23;3.03;;;;;;;10.42;48.06;96299.86;1827551;78;21543;-69
2021/04/11 07:40:02;;;;;;;5.53;2.77;;;;;;;10.68;45.02;96297.47;1827365;78;21122;-69
2021/04/11 07:42:41;;;;;;;8.03;3.30;;;;;;;10.87;43.17;96294.25;1827618;78;21133;-69
2021/04/11 07:45:51;;;;;;;3.43;2.50;;;;;;;11.04;44.11;96291.89;1827508;78;21121;-69
2021/04/11 07:49:12;;;;;;;3.97;2.47;;;;;;;11.24;43.30;96283.77;1827820;78;21125;-69
2021/04/11 07:52:01;;;;;;;4.87;3.07;;;;;;;11.41;39.68;96286.22;1806870;78;21607;-69
2021/04/11 07:55:07;;;;;;;4.77;2.37;;;;;;;11.61;40.67;96279.39;1827610;78;21125;-69
2021/04/11 07:58:20;;;;;;;6.30;2.80;;;;;;;11.82;38.53;96270.80;1827869;78;21125;-68
2021/04/11 08:01:09;;;;;;;4.70;2.83;;;;;;;12.03;41.03;96269.21;1827480;78;21574;-69
2021/04/11 08:04:00;;;;;;;3.40;2.53;;;;;;;12.18;39.86;96270.77;1794586;78;21252;-68
2021/04/11 08:06:36;;;;;;;3.73;2.73;;;;;;;12.29;38.90;96263.54;1826985;78;21687;-69
2021/04/11 08:09:28;;;;;;;5.63;3.17;;;;;;;12.46;39.94;96264.63;1827197;78;21121;-69
2021/04/11 08:12:27;;;;;;;4.37;3.13;;;;;;;12.61;38.42;96262.64;1825994;78;21283;-69
2021/04/11 08:15:43;;;;;;;5.37;2.90;;;;;;;12.78;40.14;96261.93;1827161;78;21236;-68
2021/04/11 08:18:41;;;;;;;9.43;2.93;;;;;;;13.01;39.03;96262.86;1827123;78;21082;-69
2021/04/11 08:21:23;;;;;;;7.87;3.20;;;;;;;13.17;38.30;96266.09;1827291;78;21206;-69
2021/04/11 08:24:25;;;;;;;4.93;2.90;;;;;;;13.35;39.17;96268.44;1827007;78;21555;-69
2021/04/11 08:27:22;;;;;;;4.50;3.00;;;;;;;13.46;37.25;96264.73;1827349;78;21515;-69
2021/04/11 08:30:17;;;;;;;5.10;3.40;;;;;;;13.61;37.39;96263.11;1777485;80;21196;-69
2021/04/11 08:33:17;;;;;;;4.97;3.13;;;;;;;13.74;36.63;96265.93;1776355;81;21126;-69
2021/04/11 08:36:37;;;;;;;5.23;2.90;;;;;;;13.90;36.79;96273.11;1730722;81;21122;-69
2021/04/11 08:39:26;;;;;;;6.37;2.70;;;;;;;14.06;36.57;96266.59;1776350;81;21162;-69
2021/04/11 08:42:26;;;;;;;3.97;3.10;;;;;;;14.22;32.93;96257.83;1759799;81;21117;-69
2021/04/11 08:45:08;;;;;;;5.33;2.70;;;;;;;14.24;31.42;96254.70;1776418;81;21284;-69
2021/04/11 08:48:09;;;;;;;5.80;3.00;;;;;;;14.38;33.24;96242.88;1759855;81;21157;-69
2021/04/11 08:51:05;;;;;;;7.80;3.10;;;;;;;14.54;34.35;96249.63;1778014;81;21145;-69
2021/04/11 08:53:48;;;;;;;4.60;2.80;;;;;;;14.77;33.16;96251.73;1765621;81;21124;-69
2021/04/11 08:56:39;;;;;;;4.47;2.63;;;;;;;14.99;33.09;96248.52;1780217;80;21485;-69
2021/04/11 08:59:30;;;;;;;6.50;3.13;;;;;;;15.12;32.79;96249.51;1765638;81;21508;-69
2021/04/11 09:02:22;;;;;;;5.00;2.77;;;;;;;15.24;32.20;96250.08;1779671;81;21138;-69
2021/04/11 09:05:26;;;;;;;4.20;3.20;;;;;;;15.26;31.83;96249.59;1765125;81;21182;-69
2021/04/11 09:08:26;;;;;;;;;;;;;;;15.36;33.43;96246.64;1782308;80;21094;-69
2021/04/11 09:11:48;;;;;;;5.93;3.20;;;;;;;15.43;30.54;96246.03;1778956;81;20128;-69
2021/04/11 09:14:43;;;;;;;4.83;2.83;;;;;;;15.53;31.97;96243.99;1765378;81;21131;-69
2021/04/11 09:17:51;;;;;;;3.70;2.80;;;;;;;15.66;31.77;96234.75;1779724;81;21154;-69
2021/04/11 09:20:42;;;;;;;3.93;2.63;;;;;;;15.87;31.96;96233.28;1765405;81;21089;-69
2021/04/11 09:23:37;;;;;;;6.30;2.90;;;;;;;16.04;31.50;96227.94;1779645;81;21137;-69
2021/04/11 09:26:41;;;;;;;6.23;3.03;;;;;;;16.30;31.44;96229.80;1764755;81;21593;-69
2021/04/11 09:29:38;;;;;;;4.53;3.10;;;;;;;16.44;29.08;96220.92;1780033;81;21564;-69
2021/04/11 09:32:47;;;;;;;7.60;3.13;;;;;;;16.59;28.97;96215.10;1764941;81;21153;-69
2021/04/11 09:35:32;;;;;;;5.90;2.90;;;;;;;16.74;29.69;96208.88;1779946;80;21134;-69
2021/04/11 09:38:19;;;;;;;4.27;2.83;;;;;;;16.71;28.74;96207.18;1736817;81;21148;-69
2021/04/11 09:41:26;;;;;;;5.07;2.93;;;;;;;16.68;29.70;96205.92;1779899;81;21138;-69
2021/04/11 09:44:26;;;;;;;5.77;3.40;;;;;;;16.68;29.61;96209.91;1765512;81;21115;-69
2021/04/11 09:47:08;;;;;;;5.53;3.20;;;;;;;16.52;28.04;96218.02;1779433;80;21121;-69
2021/04/11 09:49:54;;;;;;;6.73;4.60;;;;;;;16.71;29.90;96212.98;1765054;81;21152;-69
2021/04/11 09:52:59;;;;;;;7.77;3.93;;;;;;;16.83;26.29;96207.24;1776206;81;21576;-69
2021/04/11 09:55:38;;;;;;;5.23;3.23;;;;;;;16.90;28.01;96198.59;1759676;81;21137;-69
2021/04/11 09:58:43;;;;;;;6.27;3.23;;;;;;;16.78;28.84;96200.77;1776485;81;21271;-69
2021/04/11 10:01:19;;;;;;;5.97;3.97;;;;;;;16.81;27.93;96193.13;1759931;81;21148;-69
2021/04/11 10:04:14;;;;;;;5.27;3.37;;;;;;;16.87;27.92;96188.44;1776548;81;21134;-69
2021/04/11 10:07:10;;;;;;;4.87;3.40;;;;;;;16.83;27.49;96195.25;1759765;81;21157;-69
2021/04/11 10:10:27;;;;;;;4.50;3.00;;;;;;;16.69;26.50;96194.36;1772541;81;21145;-69
2021/04/11 10:13:43;;;;;;;4.43;3.37;;;;;;;16.66;26.84;96187.80;1738078;81;21112;-69
2021/04/11 10:16:32;;;;;;;5.63;3.43;;;;;;;16.95;27.92;96184.17;1776050;81;21183;-69
2021/04/11 10:19:31;;;;;;;5.83;3.57;;;;;;;17.17;28.90;96187.45;1760020;81;21132;-69
2021/04/11 10:22:21;;;;;;;5.33;3.30;;;;;;;17.31;26.94;96183.80;1776208;81;21300;-69
2021/04/11 10:24:55;;;;;;;6.47;3.57;;;;;;;17.64;27.54;96180.84;1759776;81;21131;-69
2021/04/11 10:27:31;;;;;;;6.85;3.52;;;;;;;17.87;27.31;96172.89;1775613;81;21264;-69
2021/04/11 10:30:00;;;;;;;7.60;3.77;;;;;;;18.14;27.32;96172.73;1759545;81;21144;-69
2021/04/11 10:32:56;;;;;;;5.90;4.03;;;;;;;18.31;25.41;96173.42;1748630;81;21568;-69
2021/04/11 10:35:32;;;;;;;4.75;2.98;;;;;;;18.30;26.60;96171.69;1759655;81;21161;-69
2021/04/11 10:38:14;;;;;;;5.62;3.92;;;;;;;18.16;25.64;96174.42;1776153;81;21256;-69
2021/04/11 10:41:12;;;;;;;6.10;4.05;;;;;;;17.89;26.03;96174.16;1760169;81;21519;-69
2021/04/11 10:44:09;;;;;;;5.08;4.28;;;;;;;17.61;25.28;96176.95;1776173;81;21146;-69
2021/04/11 10:47:01;;;;;;;6.65;3.87;;;;;;;17.44;26.29;96177.13;1730547;81;21144;-69
2021/04/11 10:50:04;;;;;;;9.00;5.07;;;;;;;17.63;27.35;96179.11;1776469;81;21272;-69
2021/04/11 10:52:46;;;;;;;8.90;4.20;;;;;;;17.86;27.58;96169.80;1721661;83;21141;-69
2021/04/11 10:55:46;;;;;;;5.92;4.12;;;;;;;18.13;25.92;96163.87;1723680;83;21149;-69
2021/04/11 10:58:51;;;;;;;8.95;4.45;;;;;;;18.31;26.72;96160.06;1765567;81;21133;-69
2021/04/11 11:01:33;;;;;;;10.80;4.60;;;;;;;18.38;25.82;96159.75;1788146;80;21576;-69
2021/04/11 11:04:21;;;;;;;6.05;4.75;;;;;;;18.50;23.10;96157.06;1788056;80;21144;-69
2021/04/11 11:07:44;;;;;;;7.50;5.35;;;;;;;18.37;23.79;96157.16;1788152;80;21595;-69
2021/04/11 11:10:26;;;;;;;8.98;5.20;;;;;;;18.37;25.35;96163.84;1788011;80;21288;-69
2021/04/11 11:13:16;;;;;;;7.27;4.70;;;;;;;18.51;26.02;96155.25;1788507;80;21540;-69
2021/04/11 11:16:10;;;;;;;8.25;5.45;;;;;;;18.47;26.90;96154.52;1788325;80;21119;-69
2021/04/11 11:19:35;;;;;;;8.20;5.17;;;;;;;18.32;24.67;96152.44;1788229;80;21563;-69
2021/04/11 11:22:30;;;;;;;6.80;5.37;;;;;;;18.09;25.32;96150.69;1788338;80;21125;-69
2021/04/11 11:25:20;;;;;;;6.90;4.75;;;;;;;17.83;25.10;96145.91;1759911;81;21133;-69
2021/04/11 11:28:08;;;;;;;8.13;5.03;;;;;;;17.87;26.42;96145.34;1776326;81;21110;-69
2021/04/11 11:31:17;;;;;;;7.00;4.85;;;;;;;18.15;26.71;96137.97;1730313;81;21519;-69
2021/04/11 11:34:23;;;;;;;9.60;4.67;;;;;;;18.93;25.16;96127.70;1776024;81;21272;-69
2021/04/11 11:37:23;;;;;;;7.78;4.87;;;;;;;19.27;25.65;96131.56;1759823;81;21594;-69
2021/04/11 11:40:14;;;;;;;7.75;4.92;;;;;;;19.57;24.23;96126.64;1776155;81;21312;-69
2021/04/11 11:43:11;;;;;;;9.03;5.83;;;;;;;19.81;22.54;96123.34;1740309;81;21105;-69
2021/04/11 11:46:23;;;;;;;7.80;5.00;;;;;;;19.80;22.51;96119.77;1776468;81;21240;-69
2021/04/11 11:48:59;;;;;;;8.33;5.60;;;;;;;19.98;23.80;96122.53;1760081;81;21140;-69
2021/04/11 11:52:08;;;;;;;8.38;5.05;;;;;;;20.46;22.23;96117.98;1778101;81;21718;-69
2021/04/11 11:54:47;;;;;;;6.15;5.28;;;;;;;20.99;23.49;96109.55;1764905;81;21124;-69
2021/04/11 11:57:24;;;;;;;7.25;5.05;;;;;;;21.23;21.48;96099.81;1779640;81;21123;-69
2021/04/11 12:00:23;;;;;;;6.60;4.62;;;;;;;21.84;21.50;96095.19;1765414;81;21136;-70
2021/04/11 12:03:26;;;;;;;6.40;4.78;;;;;;;22.11;20.46;96085.20;1779943;80;21149;-70
2021/04/11 12:06:29;;;;;;;6.50;4.45;;;;;;;22.70;21.12;96076.87;1765647;81;21123;-70
2021/04/11 12:09:20;;;;;;;5.70;4.25;;;;;;;23.14;21.59;96084.16;1754081;81;21091;-70
2021/04/11 12:12:02;;;;;;;6.22;4.30;;;;;;;23.62;17.53;96078.53;1765071;81;21131;-70
2021/04/11 12:14:44;;;;;;;6.50;4.72;;;;;;;23.80;17.99;96071.14;1779797;81;21533;-70
2021/04/11 12:17:46;;;;;;;7.12;4.42;;;;;;;23.67;16.90;96065.15;1765568;81;21112;-70
2021/04/11 12:20:44;;;;;;;6.60;4.28;;;;;;;23.26;18.26;96062.36;1780016;81;21158;-70
2021/04/11 12:23:31;;;;;;;6.33;4.25;;;;;;;23.30;18.61;96062.05;1765444;81;21674;-70
2021/04/11 12:26:15;;;;;;;5.15;4.40;;;;;;;23.16;19.16;96055.32;1779637;81;21118;-70
2021/04/11 12:28:44;;;;;;;4.65;4.00;;;;;;;22.77;19.67;96057.20;1765466;81;21547;-70
2021/04/11 12:31:26;;;;;;;7.22;4.20;;;;;;;22.79;17.81;96053.95;1779658;81;21575;-70
2021/04/11 12:34:08;;;;;;;4.75;3.98;;;;;;;22.89;19.74;96050.61;1765744;81;21550;-70
2021/04/11 12:36:53;;;;;;;4.80;4.03;;;;;;;23.52;19.96;96052.16;1779547;81;21603;-70
2021/04/11 12:39:26;;;;;;;6.37;4.67;;;;;;;23.79;18.46;96042.45;1763703;81;21184;-70
2021/04/11 12:42:17;;;;;;;5.80;4.08;;;;;;;23.57;18.46;96044.28;1779568;80;21098;-70
2021/04/11 12:44:50;;;;;;;6.08;3.77;;;;;;;23.37;16.79;96036.11;1764323;81;21562;-71
2021/04/11 12:47:26;;;;;;;4.30;3.83;;;;;;;23.01;18.30;96039.63;1779232;81;21138;-71
2021/04/11 12:50:03;;;;;;;7.95;5.05;;;;;;;22.93;18.60;96035.61;1765348;81;21112;-70
2021/04/11 12:52:46;;;;;;;7.42;4.70;;;;;;;23.07;17.78;96035.69;1776894;80;21711;-71
2021/04/11 12:55:33;;;;;;;6.65;4.40;;;;;;;23.47;19.48;96021.10;1758943;81;21156;-70
2021/04/11 12:58:28;;;;;;;7.15;4.58;;;;;;;23.67;17.31;96023.39;1776293;81;21745;-70
2021/04/11 13:01:21;;;;;;;7.05;4.20;;;;;;;23.15;20.13;96023.95;1759771;81;21096;-70